Time;durP1;ratioP1;P1;durP2;ratioP2;P2;SDS_P1;SDS_P2;PMS_P1;PMS_P2;Temp;Humidity;BMP_temperature;BMP_pressure;BME280_temperature;BME280_humidity;BME280_pressure;Samples;Min_cycle;Max_cycle;Signal;HPM_P1;HPM_P2
2023/03/18 00:01:02;;;;;;;9.43;5.00;;;2.10;92.10;;;;;;4994893;28;20609;-85
2023/03/18 00:03:30;;;;;;;18.37;4.63;;;2.10;92.30;;;;;;4995375;28;20260;-83
2023/03/18 00:06:14;;;;;;;11.10;4.57;;;2.00;92.80;;;;;;4978061;28;20185;-83
2023/03/18 00:08:41;;;;;;;9.50;3.43;;;2.00;93.50;;;;;;4978110;28;20181;-83
2023/03/18 00:11:08;;;;;;;22.63;6.47;;;2.00;94.00;;;;;;4995436;28;20179;-83
2023/03/18 00:13:34;;;;;;;20.80;6.83;;;2.00;94.20;;;;;;4995169;28;20213;-83
2023/03/18 00:16:01;;;;;;;24.77;6.03;;;2.00;94.20;;;;;;4995107;28;20185;-84
2023/03/18 00:18:27;;;;;;;14.60;6.70;;;1.90;94.60;;;;;;4977563;28;20261;-84
2023/03/18 00:20:53;;;;;;;7.00;3.97;;;1.90;94.60;;;;;;4995368;28;20206;-83
2023/03/18 00:23:20;;;;;;;5.33;2.83;;;1.90;94.90;;;;;;4995011;28;20183;-83
2023/03/18 00:25:47;;;;;;;3.90;2.43;;;1.90;95.00;;;;;;4995193;28;20635;-83
2023/03/18 00:28:13;;;;;;;5.70;4.77;;;1.90;95.80;;;;;;4977412;28;20628;-84
2023/03/18 00:30:41;;;;;;;9.30;2.63;;;1.90;95.90;;;;;;4977582;28;20177;-84
2023/03/18 00:33:09;;;;;;;7.03;2.30;;;1.80;96.30;;;;;;4978023;28;20174;-84
2023/03/18 00:35:35;;;;;;;7.23;3.97;;;1.80;96.70;;;;;;4995129;28;20235;-84
2023/03/18 00:38:02;;;;;;;4.20;2.53;;;1.80;96.80;;;;;;4994647;28;20264;-83
2023/03/18 00:40:41;;;;;;;9.93;3.27;;;1.80;97.30;;;;;;4961772;28;20190;-83
2023/03/18 00:43:11;;;;;;;10.53;5.17;;;1.70;97.30;;;;;;4978855;28;20188;-84
2023/03/18 00:45:39;;;;;;;5.53;3.40;;;1.70;97.60;;;;;;4994922;28;20202;-84
2023/03/18 00:48:06;;;;;;;9.93;3.50;;;1.70;97.70;;;;;;4977073;28;20232;-84
2023/03/18 00:50:33;;;;;;;33.37;11.97;;;1.60;98.30;;;;;;4994771;28;20190;-84
2023/03/18 00:52:59;;;;;;;24.97;9.60;;;1.60;98.80;;;;;;4993529;28;20202;-84
2023/03/18 00:55:26;;;;;;;10.77;6.43;;;1.60;99.70;;;;;;4994339;28;20178;-84
2023/03/18 00:57:52;;;;;;;11.13;4.20;;;1.50;99.90;;;;;;4977123;28;20185;-83
2023/03/18 01:00:18;;;;;;;38.40;12.87;;;1.50;99.90;;;;;;4994217;28;20210;-83
2023/03/18 01:02:44;;;;;;;68.20;24.50;;;1.50;99.90;;;;;;4994454;28;20186;-83
2023/03/18 01:05:14;;;;;;;19.77;8.57;;;1.50;99.90;;;;;;4993966;28;20189;-84
2023/03/18 01:07:40;;;;;;;14.13;5.77;;;1.50;99.90;;;;;;4994520;28;20296;-83
2023/03/18 01:10:07;;;;;;;50.93;14.90;;;1.40;99.90;;;;;;4977060;28;20218;-85
2023/03/18 01:12:32;;;;;;;17.07;5.73;;;1.40;99.90;;;;;;4993248;28;20233;-83
2023/03/18 01:14:58;;;;;;;41.87;10.27;;;1.40;99.90;;;;;;4976897;28;20650;-83
2023/03/18 01:17:25;;;;;;;16.77;6.17;;;1.40;99.90;;;;;;4973301;28;20235;-83
2023/03/18 01:19:50;;;;;;;23.60;10.07;;;1.40;99.90;;;;;;4974861;28;20213;-83
2023/03/18 01:22:16;;;;;;;35.30;7.57;;;1.40;99.90;;;;;;4973363;28;20206;-84
2023/03/18 01:24:43;;;;;;;17.23;5.63;;;1.30;99.90;;;;;;4973478;28;20195;-83
2023/03/18 01:27:09;;;;;;;13.83;5.67;;;1.30;99.90;;;;;;4973098;28;20209;-84
2023/03/18 01:29:36;;;;;;;10.83;5.20;;;;;;;;;;4974946;28;20191;-83
2023/03/18 01:32:02;;;;;;;46.33;14.60;;;1.30;99.90;;;;;;4973460;28;20186;-83
2023/03/18 01:34:28;;;;;;;12.10;5.70;;;1.30;99.90;;;;;;4989351;28;20273;-83
2023/03/18 01:36:54;;;;;;;46.80;13.47;;;1.20;99.90;;;;;;4973408;28;20278;-83
2023/03/18 01:39:22;;;;;;;17.13;6.03;;;1.20;99.90;;;;;;4957152;28;20183;-84
2023/03/18 01:41:49;;;;;;;7.37;3.40;;;1.20;99.90;;;;;;4989260;28;20545;-83
2023/03/18 01:44:18;;;;;;;15.80;8.20;;;1.20;99.90;;;;;;4974007;28;20225;-84
2023/03/18 01:46:47;;;;;;;16.33;6.30;;;1.10;99.90;;;;;;4974598;28;20213;-83
2023/03/18 01:49:19;;;;;;;12.67;5.97;;;1.10;99.90;;;;;;4974368;28;20182;-84
2023/03/18 01:51:50;;;;;;;6.57;4.17;;;1.10;99.90;;;;;;4974605;28;20245;-83
2023/03/18 01:54:18;;;;;;;11.00;6.30;;;1.10;99.90;;;;;;4974334;28;20178;-83
2023/03/18 01:56:47;;;;;;;6.03;2.70;;;1.10;99.90;;;;;;4974270;28;20185;-83
2023/03/18 01:59:14;;;;;;;7.03;4.07;;;1.10;99.90;;;;;;4989181;28;20179;-84
2023/03/18 02:02:01;;;;;;;14.40;3.77;;;1.10;99.90;;;;;;4974357;28;20707;-84
2023/03/18 02:04:33;;;;;;;14.00;3.77;;;1.10;99.90;;;;;;4974095;28;20178;-84
2023/03/18 02:07:00;;;;;;;26.57;9.10;;;1.10;99.90;;;;;;4989232;28;20710;-85
2023/03/18 02:09:26;;;;;;;5.57;3.77;;;;;;;;;;4989133;28;20555;-84
2023/03/18 02:11:52;;;;;;;3.90;3.37;;;1.10;99.90;;;;;;4974122;28;20189;-84
2023/03/18 02:14:24;;;;;;;11.57;5.60;;;1.10;99.90;;;;;;4956865;28;20663;-84
2023/03/18 02:17:03;;;;;;;3.63;3.07;;;1.10;99.90;;;;;;4974153;28;20182;-84
2023/03/18 02:19:38;;;;;;;5.90;3.83;;;1.10;99.90;;;;;;4993566;28;20174;-84
2023/03/18 02:22:30;;;;;;;12.67;3.93;;;1.00;99.90;;;;;;4993603;28;20182;-85
2023/03/18 02:25:08;;;;;;;7.87;3.23;;;1.00;99.90;;;;;;4979292;28;20189;-84
2023/03/18 02:27:39;;;;;;;12.80;4.07;;;1.00;99.90;;;;;;4996914;28;20296;-86
2023/03/18 02:30:12;;;;;;;11.30;4.63;;;1.00;99.90;;;;;;4997202;28;20183;-84
2023/03/18 02:32:40;;;;;;;14.00;4.30;;;1.00;99.90;;;;;;4979675;28;20179;-84
2023/03/18 02:35:09;;;;;;;12.97;4.90;;;1.00;99.90;;;;;;4997283;28;20182;-84
2023/03/18 02:37:35;;;;;;;3.83;3.33;;;1.00;99.90;;;;;;4996843;28;20320;-84
2023/03/18 02:40:23;;;;;;;4.50;3.80;;;1.00;99.90;;;;;;4980145;28;20182;-84
2023/03/18 02:42:49;;;;;;;4.53;3.30;;;1.00;99.90;;;;;;4997293;28;20626;-84
2023/03/18 02:45:53;;;;;;;16.93;4.50;;;1.00;99.90;;;;;;4980084;28;20198;-84
2023/03/18 02:48:22;;;;;;;5.67;2.97;;;1.00;99.90;;;;;;4947276;28;20206;-86
2023/03/18 02:50:49;;;;;;;8.03;3.90;;;;;;;;;;4980069;28;20237;-84
2023/03/18 02:53:15;;;;;;;22.27;7.53;;;1.00;99.90;;;;;;4995643;28;20192;-84
2023/03/18 02:55:41;;;;;;;9.77;4.93;;;;;;;;;;5016312;28;20185;-85
2023/03/18 02:58:08;;;;;;;9.43;3.93;;;1.00;99.90;;;;;;5016628;28;20197;-84
2023/03/18 03:00:34;;;;;;;13.77;4.90;;;0.60;99.90;;;;;;4998479;28;20552;-84
2023/03/18 03:03:01;;;;;;;15.37;8.27;;;;;;;;;;4999290;28;20231;-84
2023/03/18 03:05:27;;;;;;;6.63;4.03;;;;;;;;;;4999999;28;20185;-84
2023/03/18 03:07:53;;;;;;;10.17;5.70;;;;;;;;;;5000105;28;20221;-84
2023/03/18 03:10:19;;;;;;;10.00;5.20;;;;;;;;;;4984177;28;20199;-84
2023/03/18 03:12:46;;;;;;;11.30;5.03;;;;;;;;;;5023052;28;20169;-83
2023/03/18 03:15:13;;;;;;;4.13;3.23;;;0.80;99.90;;;;;;5040643;28;20191;-84
2023/03/18 03:17:40;;;;;;;9.40;3.20;;;0.70;99.90;;;;;;5023197;28;20232;-84
2023/03/18 03:20:07;;;;;;;7.10;2.87;;;0.70;99.90;;;;;;5040664;28;20246;-83
2023/03/18 03:22:33;;;;;;;14.33;5.33;;;0.60;99.90;;;;;;5031898;28;20219;-83
2023/03/18 03:25:00;;;;;;;3.53;2.53;;;0.70;99.90;;;;;;5017218;28;20689;-83
2023/03/18 03:27:29;;;;;;;12.60;3.97;;;0.80;99.90;;;;;;4988620;28;20216;-86
2023/03/18 03:29:54;;;;;;;4.50;2.70;;;0.60;99.90;;;;;;5007117;28;20169;-83
2023/03/18 03:32:21;;;;;;;6.10;2.20;;;0.50;99.90;;;;;;5023048;28;20225;-84
2023/03/18 03:34:48;;;;;;;3.33;2.40;;;0.50;99.90;;;;;;5005802;28;20174;-84
2023/03/18 03:37:14;;;;;;;2.23;2.03;;;0.50;99.90;;;;;;5017575;28;20230;-82
2023/03/18 03:39:39;;;;;;;2.03;1.80;;;0.40;99.90;;;;;;5000164;28;20185;-85
2023/03/18 03:42:05;;;;;;;7.93;4.60;;;0.40;99.90;;;;;;4983091;28;20717;-83
2023/03/18 03:44:31;;;;;;;4.03;3.00;;;0.40;99.90;;;;;;5016394;28;20173;-83
2023/03/18 03:46:57;;;;;;;2.17;1.97;;;0.40;99.90;;;;;;4999066;28;20689;-83
2023/03/18 03:49:23;;;;;;;13.10;5.47;;;0.40;99.90;;;;;;4979706;28;20268;-85
2023/03/18 03:51:49;;;;;;;7.87;3.20;;;0.40;99.90;;;;;;4979834;28;20664;-84
2023/03/18 03:54:15;;;;;;;7.47;3.60;;;0.40;99.90;;;;;;4979297;28;20229;-83
2023/03/18 03:56:41;;;;;;;2.77;2.27;;;0.40;99.90;;;;;;4979522;28;20641;-85
2023/03/18 03:59:09;;;;;;;3.33;2.60;;;0.40;99.90;;;;;;4979335;28;20182;-83
2023/03/18 04:01:35;;;;;;;63.50;20.47;;;0.40;99.90;;;;;;4996691;28;20256;-85
2023/03/18 04:04:01;;;;;;;47.43;15.63;;;0.50;99.90;;;;;;4997029;28;20217;-84
2023/03/18 04:06:28;;;;;;;25.23;9.67;;;;;;;;;;4979167;28;20251;-86
2023/03/18 04:08:53;;;;;;;14.97;6.03;;;0.50;99.90;;;;;;4996730;28;20256;-85
2023/03/18 04:11:20;;;;;;;21.73;9.63;;;0.70;99.90;;;;;;4978352;28;20269;-84
2023/03/18 04:13:45;;;;;;;23.67;5.77;;;0.50;99.90;;;;;;4978043;28;20185;-85
2023/03/18 04:16:11;;;;;;;2.03;1.80;;;0.50;99.90;;;;;;4978465;28;20193;-85
2023/03/18 04:18:37;;;;;;;6.63;2.80;;;0.40;99.90;;;;;;4977937;28;20312;-84
2023/03/18 04:21:03;;;;;;;3.03;2.03;;;0.40;99.90;;;;;;4961919;28;20264;-84
2023/03/18 04:23:29;;;;;;;14.30;2.80;;;0.50;99.90;;;;;;4990331;28;20657;-84
2023/03/18 04:25:55;;;;;;;5.30;2.03;;;0.50;99.90;;;;;;4996523;28;20180;-84
2023/03/18 04:28:21;;;;;;;5.43;2.53;;;0.50;99.90;;;;;;4961353;28;20554;-85
2023/03/18 04:30:47;;;;;;;3.77;3.00;;;0.50;99.90;;;;;;4994798;28;20638;-84
2023/03/18 04:33:15;;;;;;;9.23;3.93;;;0.50;99.90;;;;;;4995268;28;20189;-85
2023/03/18 04:35:43;;;;;;;12.73;3.70;;;0.50;99.90;;;;;;4994849;28;20182;-84
2023/03/18 04:38:09;;;;;;;2.80;2.53;;;0.60;99.90;;;;;;4994763;28;20201;-84
2023/03/18 04:40:34;;;;;;;5.57;2.40;;;0.60;99.90;;;;;;4977424;28;20637;-84
2023/03/18 04:43:00;;;;;;;3.87;2.27;;;0.60;99.90;;;;;;4994670;28;20170;-83
2023/03/18 04:45:26;;;;;;;4.73;2.27;;;0.50;99.90;;;;;;4961932;28;20239;-84
2023/03/18 04:47:52;;;;;;;3.40;2.87;;;0.60;99.90;;;;;;4977196;28;20858;-83
2023/03/18 04:50:18;;;;;;;6.60;2.70;;;0.60;99.90;;;;;;4979994;28;20553;-83
2023/03/18 04:52:44;;;;;;;5.27;3.50;;;0.60;99.90;;;;;;5004882;28;20192;-83
2023/03/18 04:55:10;;;;;;;2.17;1.77;;;0.60;99.90;;;;;;4996659;28;20522;-83
2023/03/18 04:57:37;;;;;;;4.00;2.47;;;0.60;99.90;;;;;;5013926;28;20749;-83
2023/03/18 05:00:07;;;;;;;8.20;2.83;;;0.60;99.90;;;;;;4977850;28;20581;-85
2023/03/18 05:02:33;;;;;;;5.67;2.73;;;0.70;99.90;;;;;;4997941;28;20194;-84
2023/03/18 05:05:00;;;;;;;5.30;1.97;;;0.70;99.90;;;;;;4976877;28;20277;-84
2023/03/18 05:07:26;;;;;;;19.70;3.23;;;0.70;99.90;;;;;;4998069;28;20208;-84
2023/03/18 05:09:51;;;;;;;2.10;2.00;;;0.80;99.90;;;;;;4996208;28;20220;-84
2023/03/18 05:12:17;;;;;;;10.40;2.87;;;0.80;99.90;;;;;;4995503;28;20206;-84
2023/03/18 05:14:43;;;;;;;2.87;2.07;;;0.80;99.90;;;;;;4996060;28;20324;-85
2023/03/18 05:17:14;;;;;;;2.67;2.10;;;0.80;99.90;;;;;;4994431;28;20236;-85
2023/03/18 05:19:42;;;;;;;3.77;2.10;;;0.90;99.90;;;;;;5013302;28;20173;-85
2023/03/18 05:22:09;;;;;;;1.17;1.17;;;1.00;99.90;;;;;;4996326;28;20185;-85
2023/03/18 05:24:34;;;;;;;3.40;2.20;;;1.00;99.90;;;;;;5013283;28;20197;-85
2023/03/18 05:27:00;;;;;;;3.03;2.13;;;1.10;99.90;;;;;;5013126;28;20251;-85
2023/03/18 05:29:26;;;;;;;4.77;2.27;;;1.20;99.90;;;;;;5011780;28;20243;-85
2023/03/18 05:31:52;;;;;;;4.20;2.37;;;1.20;99.90;;;;;;4995055;28;20207;-85
2023/03/18 05:34:18;;;;;;;1.77;1.67;;;1.40;99.90;;;;;;5012733;28;20638;-85
2023/03/18 05:36:44;;;;;;;11.40;3.07;;;;;;;;;;4994782;28;20224;-87
2023/03/18 05:39:10;;;;;;;9.87;3.30;;;1.60;99.90;;;;;;4995111;28;20185;-85
2023/03/18 05:41:36;;;;;;;4.57;3.13;;;1.70;99.90;;;;;;4993975;28;20648;-85
2023/03/18 05:44:02;;;;;;;4.83;3.10;;;1.80;99.90;;;;;;5013145;28;20227;-85
2023/03/18 05:46:27;;;;;;;7.37;3.50;;;1.90;99.90;;;;;;5012750;28;20616;-86
2023/03/18 05:48:53;;;;;;;7.47;2.67;;;2.00;99.90;;;;;;4978547;28;20191;-86
2023/03/18 05:51:19;;;;;;;6.47;3.50;;;2.10;99.90;;;;;;4978917;28;20185;-85
2023/03/18 05:53:45;;;;;;;7.17;3.13;;;2.20;99.90;;;;;;5012273;28;20629;-85
2023/03/18 05:56:11;;;;;;;9.80;2.47;;;2.30;99.90;;;;;;5012305;28;20241;-85
2023/03/18 05:58:37;;;;;;;5.43;2.50;;;2.30;99.90;;;;;;4964173;28;20228;-86
2023/03/18 06:01:03;;;;;;;6.37;3.23;;;2.50;99.90;;;;;;5014642;28;20280;-86
2023/03/18 06:03:28;;;;;;;12.23;3.83;;;2.60;99.90;;;;;;4995881;28;20213;-88
2023/03/18 06:05:54;;;;;;;5.90;3.63;;;2.80;99.90;;;;;;4963304;28;20197;-86
2023/03/18 06:08:21;;;;;;;6.20;3.43;;;2.90;99.70;;;;;;4963406;28;20220;-86
2023/03/18 06:10:47;;;;;;;6.20;3.13;;;3.00;98.90;;;;;;4995447;28;20336;-85
2023/03/18 06:13:14;;;;;;;5.13;2.87;;;3.10;97.80;;;;;;4997098;28;20184;-85
2023/03/18 06:15:39;;;;;;;7.67;3.23;;;3.20;96.40;;;;;;4963635;28;20189;-85
2023/03/18 06:18:05;;;;;;;2.47;1.70;;;3.40;96.30;;;;;;4996178;28;20562;-85
2023/03/18 06:20:31;;;;;;;2.10;1.83;;;3.50;95.00;;;;;;4981880;28;20239;-84
2023/03/18 06:22:58;;;;;;;6.57;3.70;;;3.60;94.00;;;;;;4995611;28;20213;-86
2023/03/18 06:25:25;;;;;;;6.97;2.33;;;3.70;92.90;;;;;;4998366;28;20180;-87
2023/03/18 06:27:51;;;;;;;6.07;2.40;;;3.80;92.30;;;;;;5015539;28;20195;-85
2023/03/18 06:30:17;;;;;;;3.50;2.73;;;3.90;91.90;;;;;;4995260;28;20197;-85
2023/03/18 06:32:43;;;;;;;3.97;2.33;;;4.00;91.70;;;;;;4981769;28;20222;-84
2023/03/18 06:35:10;;;;;;;3.23;2.67;;;4.10;91.30;;;;;;4987618;28;20545;-87
2023/03/18 06:37:37;;;;;;;13.80;5.00;;;4.20;90.70;;;;;;4976679;28;20424;-86
2023/03/18 06:40:04;;;;;;;9.27;3.07;;;4.30;89.60;;;;;;4990022;28;20186;-86
2023/03/18 06:42:31;;;;;;;5.37;2.67;;;4.40;88.00;;;;;;4996645;28;20233;-86
2023/03/18 06:44:56;;;;;;;7.63;2.97;;;4.50;86.20;;;;;;5013865;28;20259;-85
2023/03/18 06:47:22;;;;;;;2.53;1.67;;;4.70;83.70;;;;;;5006869;28;20661;-86
2023/03/18 06:49:49;;;;;;;4.23;2.87;;;4.70;81.70;;;;;;4964379;28;20185;-87
2023/03/18 06:52:16;;;;;;;10.70;3.37;;;4.90;81.00;;;;;;4990169;28;20635;-86
2023/03/18 06:54:43;;;;;;;3.60;2.27;;;5.00;80.90;;;;;;4997792;28;20186;-85
2023/03/18 06:57:09;;;;;;;3.60;1.90;;;5.10;78.80;;;;;;5006215;28;20263;-85
2023/03/18 06:59:35;;;;;;;3.37;1.70;;;5.20;77.30;;;;;;4995485;28;20577;-87
2023/03/18 07:02:01;;;;;;;6.70;2.77;;;5.20;76.20;;;;;;4964904;28;20182;-86
2023/03/18 07:04:27;;;;;;;3.73;1.90;;;5.30;75.50;;;;;;4987323;28;20192;-84
2023/03/18 07:06:53;;;;;;;3.23;2.00;;;5.40;74.90;;;;;;4993697;28;20209;-84
2023/03/18 07:09:19;;;;;;;9.87;2.77;;;5.40;74.60;;;;;;4996136;28;20669;-84
2023/03/18 07:11:45;;;;;;;4.00;2.63;;;5.40;71.90;;;;;;5005522;28;20189;-83
2023/03/18 07:14:13;;;;;;;4.53;2.03;;;5.40;70.80;;;;;;5004107;28;20189;-84
2023/03/18 07:16:40;;;;;;;7.63;2.27;;;5.50;71.00;;;;;;4996187;28;20328;-84
2023/03/18 07:19:06;;;;;;;2.97;2.07;;;5.50;69.80;;;;;;5012978;28;20232;-85
2023/03/18 07:21:32;;;;;;;4.80;1.80;;;5.60;69.30;;;;;;4995792;28;20193;-86
2023/03/18 07:23:58;;;;;;;2.53;1.80;;;5.60;69.30;;;;;;4999728;28;20537;-85
2023/03/18 07:26:24;;;;;;;4.57;1.83;;;5.60;69.20;;;;;;4990649;28;20220;-86
2023/03/18 07:28:50;;;;;;;3.07;1.93;;;5.80;69.70;;;;;;4979866;28;20717;-84
2023/03/18 07:31:16;;;;;;;2.43;1.87;;;5.80;67.70;;;;;;4979560;28;20181;-84
2023/03/18 07:33:42;;;;;;;1.93;1.80;;;5.80;67.60;;;;;;5007028;28;20289;-83
2023/03/18 07:36:07;;;;;;;1.53;1.43;;;5.90;67.80;;;;;;4994745;28;20185;-85
2023/03/18 07:38:33;;;;;;;1.60;1.50;;;5.90;65.90;;;;;;4979437;28;20247;-83
2023/03/18 07:41:00;;;;;;;4.20;1.77;;;6.00;66.70;;;;;;5014730;28;20182;-83
2023/03/18 07:43:26;;;;;;;4.20;2.07;;;6.10;66.20;;;;;;5015123;28;20169;-85
2023/03/18 07:45:51;;;;;;;2.10;1.40;;;6.10;65.30;;;;;;4997521;28;20177;-83
2023/03/18 07:48:18;;;;;;;5.77;2.00;;;6.10;65.00;;;;;;4997467;28;20197;-85
2023/03/18 07:50:44;;;;;;;1.90;1.67;;;6.20;65.20;;;;;;4997365;28;20220;-84
2023/03/18 07:53:11;;;;;;;5.47;2.17;;;6.30;65.80;;;;;;5014595;28;20170;-85
2023/03/18 07:55:37;;;;;;;1.53;1.43;;;6.40;64.90;;;;;;4997076;28;20192;-85
2023/03/18 07:58:03;;;;;;;1.67;1.57;;;6.50;65.90;;;;;;5014677;28;20181;-83
2023/03/18 08:00:30;;;;;;;4.53;1.90;;;6.60;65.80;;;;;;4997855;28;20268;-84
2023/03/18 08:02:56;;;;;;;5.10;2.13;;;6.60;65.40;;;;;;4981799;28;20177;-83
2023/03/18 08:05:21;;;;;;;2.70;1.87;;;6.70;66.00;;;;;;5015751;28;20200;-84
2023/03/18 08:07:47;;;;;;;2.57;1.93;;;6.80;65.30;;;;;;4997792;28;20658;-83
2023/03/18 08:10:14;;;;;;;3.03;2.17;;;6.80;64.80;;;;;;4997715;28;20181;-84
2023/03/18 08:12:41;;;;;;;6.93;2.47;;;6.90;65.10;;;;;;5015260;28;20208;-84
2023/03/18 08:15:08;;;;;;;3.33;1.80;;;6.90;64.00;;;;;;4997373;28;20553;-83
2023/03/18 08:17:34;;;;;;;2.97;1.87;;;7.00;63.40;;;;;;4981510;28;20233;-82
2023/03/18 08:20:00;;;;;;;3.00;1.83;;;7.10;63.50;;;;;;5014926;28;20197;-86
2023/03/18 08:22:26;;;;;;;2.13;1.60;;;7.00;62.00;;;;;;5014436;28;20188;-83
2023/03/18 08:24:52;;;;;;;2.27;1.73;;;7.00;62.30;;;;;;5014943;28;20219;-82
2023/03/18 08:27:18;;;;;;;4.73;2.23;;;7.10;62.60;;;;;;5014416;28;20295;-83
2023/03/18 08:29:44;;;;;;;2.93;1.97;;;7.20;62.50;;;;;;5014722;28;20510;-83
2023/03/18 08:32:10;;;;;;;2.23;1.87;;;7.20;61.40;;;;;;4997000;28;20239;-84
2023/03/18 08:34:36;;;;;;;6.17;2.00;;;7.20;60.90;;;;;;5015133;28;20188;-83
2023/03/18 08:37:02;;;;;;;4.17;2.00;;;7.20;60.80;;;;;;4997285;28;20193;-84
2023/03/18 08:39:28;;;;;;;2.17;1.97;;;7.20;61.80;;;;;;4997529;28;20185;-83
2023/03/18 08:41:53;;;;;;;4.20;2.00;;;7.30;61.50;;;;;;4980974;28;20247;-83
2023/03/18 08:44:19;;;;;;;5.77;2.07;;;7.30;61.10;;;;;;5014247;28;20598;-83
2023/03/18 08:46:45;;;;;;;4.77;1.70;;;7.30;62.20;;;;;;5014635;28;20283;-84
2023/03/18 08:49:12;;;;;;;9.73;2.30;;;7.40;61.90;;;;;;4981070;28;20581;-84
2023/03/18 08:51:38;;;;;;;8.00;2.20;;;7.40;61.10;;;;;;4997472;28;20173;-83
2023/03/18 08:54:05;;;;;;;4.03;1.73;;;7.50;61.90;;;;;;5014233;28;20223;-83
2023/03/18 08:56:30;;;;;;;3.43;2.07;;;7.60;62.30;;;;;;5014510;28;20188;-84
2023/03/18 08:58:56;;;;;;;2.67;1.73;;;7.60;61.80;;;;;;4997070;28;20572;-83
2023/03/18 09:01:22;;;;;;;3.13;1.80;;;7.70;61.70;;;;;;5013670;28;20652;-84
2023/03/18 09:03:49;;;;;;;3.07;2.27;;;7.80;61.40;;;;;;4995849;28;20177;-84
2023/03/18 09:06:15;;;;;;;4.83;2.03;;;7.80;62.00;;;;;;5010428;28;20181;-84
2023/03/18 09:08:42;;;;;;;5.50;2.30;;;7.90;62.20;;;;;;4992592;28;20178;-83
2023/03/18 09:11:08;;;;;;;5.73;2.87;;;7.90;61.40;;;;;;4999350;28;20615;-83
2023/03/18 09:13:34;;;;;;;3.00;1.40;;;8.00;62.20;;;;;;4995094;28;20204;-84
2023/03/18 09:16:00;;;;;;;3.77;2.23;;;8.00;61.90;;;;;;4974111;28;20194;-84
2023/03/18 09:18:27;;;;;;;2.30;2.00;;;8.10;62.40;;;;;;5011595;28;20235;-83
2023/03/18 09:20:52;;;;;;;4.50;1.97;;;8.20;63.00;;;;;;5037190;28;20181;-83
2023/03/18 09:23:18;;;;;;;2.20;1.53;;;8.20;61.90;;;;;;5019755;28;20233;-83
2023/03/18 09:25:49;;;;;;;3.00;2.03;;;8.30;62.10;;;;;;5019951;28;20162;-83
2023/03/18 09:28:15;;;;;;;4.50;1.97;;;8.40;62.00;;;;;;5013862;28;20196;-83
2023/03/18 09:30:41;;;;;;;6.00;2.20;;;8.50;62.00;;;;;;5010603;28;20185;-82
2023/03/18 09:33:08;;;;;;;2.37;1.90;;;8.50;61.70;;;;;;5016933;28;20178;-84
2023/03/18 09:35:35;;;;;;;3.97;2.30;;;8.50;61.70;;;;;;5036587;28;20223;-83
2023/03/18 09:38:01;;;;;;;4.23;1.80;;;8.60;61.30;;;;;;5016818;28;20150;-84
2023/03/18 09:40:28;;;;;;;8.83;1.83;;;8.80;62.10;;;;;;4998492;28;20394;-83
2023/03/18 09:43:31;;;;;;;4.90;1.57;;;8.90;61.20;;;;;;4995257;28;20182;-83
2023/03/18 09:46:25;;;;;;;5.40;2.37;;;9.10;60.90;;;;;;4992502;28;20189;-83
2023/03/18 09:49:10;;;;;;;11.17;2.10;;;9.20;60.50;;;;;;5012173;28;20243;-83
2023/03/18 09:51:42;;;;;;;9.40;3.30;;;9.20;60.60;;;;;;4985853;28;20200;-83
2023/03/18 09:54:15;;;;;;;2.40;1.33;;;9.30;60.80;;;;;;5013554;28;20169;-82
2023/03/18 09:56:44;;;;;;;1.97;1.50;;;9.40;59.40;;;;;;5011535;28;20251;-84
2023/03/18 09:59:18;;;;;;;2.47;1.60;;;9.50;59.00;;;;;;5013194;28;20171;-85
2023/03/18 10:01:48;;;;;;;2.50;1.40;;;9.60;58.40;;;;;;5014208;28;20288;-85
2023/03/18 10:04:27;;;;;;;2.33;1.80;;;9.70;58.60;;;;;;4994580;28;20189;-83
2023/03/18 10:06:59;;;;;;;3.57;2.03;;;9.70;58.10;;;;;;5013094;28;20193;-83
2023/03/18 10:09:39;;;;;;;4.13;2.00;;;9.90;58.70;;;;;;5012985;28;20175;-83
2023/03/18 10:12:15;;;;;;;2.85;1.88;;;10.10;58.60;;;;;;5011546;28;20167;-84
2023/03/18 10:15:07;;;;;;;1.73;1.42;;;10.30;57.10;;;;;;5013378;28;20160;-83
2023/03/18 10:17:44;;;;;;;2.70;1.80;;;10.30;55.00;;;;;;5013613;28;20229;-82
2023/03/18 10:20:21;;;;;;;12.65;1.58;;;10.40;57.20;;;;;;4994282;28;20505;-83
2023/03/18 10:23:25;;;;;;;2.17;2.00;;;10.50;56.90;;;;;;5012086;28;20638;-82
2023/03/18 10:25:54;;;;;;;3.63;2.30;;;10.60;56.80;;;;;;5008691;28;20169;-83
2023/03/18 10:28:40;;;;;;;5.27;2.47;;;10.60;55.70;;;;;;5008619;28;20773;-84
2023/03/18 10:31:32;;;;;;;4.80;2.03;;;10.50;56.20;;;;;;5012729;28;20165;-84
2023/03/18 10:34:05;;;;;;;4.32;1.90;;;10.80;56.60;;;;;;4989287;28;20646;-84
2023/03/18 10:36:43;;;;;;;2.63;1.20;;;10.90;56.00;;;;;;4995100;28;20177;-84
2023/03/18 10:39:18;;;;;;;3.35;1.58;;;11.10;55.60;;;;;;5013486;28;20154;-84
2023/03/18 10:41:48;;;;;;;4.25;1.90;;;11.30;53.30;;;;;;5012672;28;20169;-83
2023/03/18 10:44:37;;;;;;;7.72;2.22;;;11.20;55.00;;;;;;4995327;28;20536;-85
2023/03/18 10:47:08;;;;;;;3.53;1.83;;;11.30;54.80;;;;;;5016425;28;20201;-85
2023/03/18 10:49:41;;;;;;;6.60;2.13;;;11.40;54.10;;;;;;5015965;28;20617;-84
2023/03/18 10:52:23;;;;;;;4.40;2.30;;;11.50;54.40;;;;;;4998349;28;20212;-85
2023/03/18 10:54:51;;;;;;;2.45;1.63;;;11.50;54.10;;;;;;4996549;28;20657;-85
2023/03/18 10:57:18;;;;;;;4.07;2.65;;;11.60;53.70;;;;;;4997489;28;20242;-84
2023/03/18 10:59:44;;;;;;;5.30;1.50;;;11.60;53.70;;;;;;5015490;28;20178;-84
2023/03/18 11:02:35;;;;;;;5.32;1.95;;;11.60;53.70;;;;;;5015493;28;20173;-82
2023/03/18 11:05:23;;;;;;;3.40;1.80;;;11.70;52.80;;;;;;5014046;28;20192;-84
2023/03/18 11:07:58;;;;;;;7.35;2.20;;;11.60;52.70;;;;;;4991697;28;20247;-83
2023/03/18 11:10:29;;;;;;;2.00;1.67;;;11.80;54.10;;;;;;4989823;28;20180;-83
2023/03/18 11:13:01;;;;;;;3.28;2.15;;;11.80;53.70;;;;;;5014952;28;20236;-83
2023/03/18 11:15:38;;;;;;;4.32;1.92;;;11.90;54.40;;;;;;5013163;28;20669;-83
2023/03/18 11:18:04;;;;;;;2.92;1.65;;;12.00;53.60;;;;;;4992054;28;20612;-81
2023/03/18 11:20:46;;;;;;;5.03;2.30;;;12.00;52.30;;;;;;4995492;28;20194;-82
2023/03/18 11:23:55;;;;;;;4.82;1.90;;;12.00;52.30;;;;;;4993341;28;20174;-84
2023/03/18 11:26:23;;;;;;;4.80;2.55;;;12.00;53.40;;;;;;4994686;28;20176;-83
2023/03/18 11:28:54;;;;;;;4.57;2.67;;;12.00;54.30;;;;;;4992489;28;20222;-82
2023/03/18 11:31:20;;;;;;;3.90;2.47;;;12.10;52.50;;;;;;4995169;28;20166;-84
2023/03/18 11:33:46;;;;;;;6.38;2.28;;;12.20;54.00;;;;;;4993904;28;20194;-83
2023/03/18 11:36:19;;;;;;;4.25;2.17;;;12.10;53.40;;;;;;4994258;28;20247;-83
2023/03/18 11:39:01;;;;;;;4.90;2.67;;;12.10;53.80;;;;;;4993840;28;20615;-83
2023/03/18 11:41:29;;;;;;;5.95;2.60;;;12.10;54.70;;;;;;4993441;28;20182;-84
2023/03/18 11:43:59;;;;;;;5.25;2.67;;;12.10;54.50;;;;;;4994779;28;20186;-83
2023/03/18 11:46:50;;;;;;;5.05;2.33;;;12.30;54.50;;;;;;4994865;28;20268;-85
2023/03/18 11:49:24;;;;;;;4.22;2.35;;;12.30;53.40;;;;;;4986406;28;20194;-85
2023/03/18 11:52:11;;;;;;;5.07;1.90;;;12.10;53.70;;;;;;4994237;28;20626;-84
2023/03/18 11:54:43;;;;;;;7.10;2.22;;;12.00;54.20;;;;;;4991953;28;20189;-83
2023/03/18 11:57:40;;;;;;;4.93;2.17;;;12.00;54.10;;;;;;4992606;28;20260;-82
2023/03/18 12:00:54;;;;;;;4.57;1.92;;;12.10;54.30;;;;;;4991663;28;20198;-82
2023/03/18 12:03:34;;;;;;;4.60;1.88;;;12.00;53.70;;;;;;4976078;28;20580;-83
2023/03/18 12:06:20;;;;;;;4.13;2.65;;;11.90;52.40;;;;;;4991387;28;20173;-82
2023/03/18 12:09:00;;;;;;;3.97;2.20;;;12.00;53.40;;;;;;4991657;28;20635;-84
2023/03/18 12:11:47;;;;;;;5.82;2.38;;;11.90;54.00;;;;;;4983562;28;20177;-83
2023/03/18 12:18:02;;;;;;;4.32;2.30;;;12.20;54.00;;;;;;5218207;23;20692;-82
2023/03/18 12:20:39;;;;;;;4.18;1.65;;;12.30;53.70;;;;;;4995646;28;20177;-84
2023/03/18 12:23:13;;;;;;;5.10;2.28;;;12.40;54.20;;;;;;4994537;28;20174;-84
2023/03/18 12:25:57;;;;;;;8.98;2.50;;;12.50;54.60;;;;;;4993823;28;20177;-84
2023/03/18 12:28:49;;;;;;;4.35;2.50;;;12.70;53.90;;;;;;4992925;28;20202;-83
2023/03/18 12:31:24;;;;;;;4.47;2.38;;;12.60;54.40;;;;;;4993458;28;20555;-83
2023/03/18 12:33:55;;;;;;;3.85;2.10;;;12.60;53.60;;;;;;4992160;28;20169;-83
2023/03/18 12:36:48;;;;;;;8.20;2.53;;;12.60;53.90;;;;;;4993852;28;20178;-83
2023/03/18 12:39:26;;;;;;;4.88;2.55;;;12.80;53.70;;;;;;4992811;28;20173;-84
2023/03/18 12:42:15;;;;;;;4.50;2.47;;;12.90;52.90;;;;;;4992680;28;20204;-84
2023/03/18 12:44:48;;;;;;;6.70;2.40;;;13.10;52.40;;;;;;4993055;28;20189;-84
2023/03/18 12:47:39;;;;;;;5.00;2.08;;;13.20;52.50;;;;;;4992091;28;20206;-84
2023/03/18 12:50:14;;;;;;;6.22;2.55;;;13.20;53.20;;;;;;4991665;28;20170;-84
2023/03/18 12:53:00;;;;;;;11.98;3.72;;;13.30;51.60;;;;;;4994626;28;20178;-84
2023/03/18 12:55:38;;;;;;;6.82;3.25;;;13.50;52.10;;;;;;4988596;28;20190;-83
2023/03/18 12:58:17;;;;;;;7.13;2.58;;;13.70;50.80;;;;;;4992137;28;20240;-81
2023/03/18 13:00:49;;;;;;;5.18;2.35;;;13.90;51.60;;;;;;4987798;28;20177;-83
2023/03/18 13:03:30;;;;;;;3.88;2.28;;;14.10;51.50;;;;;;4993159;28;20170;-83
2023/03/18 13:05:59;;;;;;;5.15;2.47;;;14.40;50.60;;;;;;4992085;28;20662;-86
2023/03/18 13:08:59;;;;;;;6.60;2.20;;;14.40;48.90;;;;;;4991075;28;20206;-85
2023/03/18 13:11:28;;;;;;;5.45;2.38;;;14.70;48.50;;;;;;4991703;28;20265;-85
2023/03/18 13:14:02;;;;;;;8.27;3.33;;;15.00;48.60;;;;;;4992991;28;20167;-85